Time,TemperatureF,DewpointF,PressureIn,WindDirection,WindDirectionDegrees,WindSpeedMPH,WindSpeedGustMPH,Humidity,HourlyPrecipIn,Conditions,Clouds,dailyrainin,SoftwareType,DateUTC
2017-03-30 00:00:00,65.2,63.8,30.03,SSW,211,0.0,0.0,95,0.00,,,0.00,TxWx,2017-03-30 04:00:00,
2017-03-30 00:05:00,65.0,63.7,30.03,SW,231,0.0,0.0,95,0.00,,,0.00,TxWx,2017-03-30 04:05:00,
2017-03-30 00:10:00,63.8,62.6,30.03,SW,225,7.0,8.0,96,0.00,,,0.00,TxWx,2017-03-30 04:10:00,
2017-03-30 00:16:00,63.2,62.7,30.03,SW,230,1.2,1.2,98,0.00,,,0.00,TxWx,2017-03-30 04:16:00,
2017-03-30 00:21:00,63.4,62.9,30.03,SSE,167,0.0,0.0,98,0.00,,,0.00,TxWx,2017-03-30 04:21:00,
2017-03-30 00:26:00,63.5,63.1,30.03,East,87,0.0,0.0,98,0.00,,,0.00,TxWx,2017-03-30 04:26:00,
2017-03-30 00:28:00,63.5,63.1,30.03,ESE,107,0.0,0.0,98,0.00,,,0.00,TxWx,2017-03-30 04:28:00,
2017-03-30 00:33:00,63.4,63.0,30.03,ENE,67,0.0,0.0,98,0.00,,,0.00,TxWx,2017-03-30 04:33:00,
2017-03-30 00:38:00,62.7,62.4,30.03,SW,234,4.8,5.0,99,0.00,,,0.00,TxWx,2017-03-30 04:38:00,
2017-03-30 00:43:00,63.0,63.0,30.03,SSW,194,3.5,4.0,100,0.00,,,0.00,TxWx,2017-03-30 04:43:00,
2017-03-30 00:48:00,63.4,63.4,30.03,SSE,154,3.9,3.9,100,0.00,,,0.00,TxWx,2017-03-30 04:48:00,
2017-03-30 00:53:00,63.5,63.5,30.03,SSE,159,1.5,1.5,100,0.00,,,0.00,TxWx,2017-03-30 04:53:00,
2017-03-30 00:58:00,63.5,63.5,30.03,SSE,167,1.1,1.1,100,0.00,,,0.00,TxWx,2017-03-30 04:58:00,
2017-03-30 01:03:00,63.5,63.5,30.02,ESE,120,0.0,0.0,100,0.00,,,0.00,TxWx,2017-03-30 05:03:00,
2017-03-30 01:08:00,63.1,63.1,30.02,ENE,75,2.6,2.6,100,0.00,,,0.00,TxWx,2017-03-30 05:08:00,
2017-03-30 01:13:00,62.9,62.9,30.02,ENE,69,2.4,2.4,100,0.00,,,0.00,TxWx,2017-03-30 05:13:00,
2017-03-30 01:18:00,62.8,62.8,30.02,ENE,72,2.0,2.0,100,0.00,,,0.00,TxWx,2017-03-30 05:18:00,
2017-03-30 01:23:00,62.3,62.3,30.02,ENE,70,2.2,2.2,100,0.00,,,0.00,TxWx,2017-03-30 05:23:00,
2017-03-30 01:28:00,61.9,61.9,30.02,ENE,62,0.0,0.0,100,0.00,,,0.00,TxWx,2017-03-30 05:28:00,
2017-03-30 01:33:00,61.8,61.8,30.02,ENE,66,0.0,0.0,100,0.00,,,0.00,TxWx,2017-03-30 05:33:00,
2017-03-30 01:38:00,61.9,61.9,30.02,WNW,283,3.2,3.2,100,0.00,,,0.00,TxWx,2017-03-30 05:38:00,
2017-03-30 01:43:00,61.5,61.5,30.02,WNW,303,0.9,0.0,100,0.00,,,0.00,TxWx,2017-03-30 05:43:00,
2017-03-30 01:48:00,61.5,61.5,30.02,WSW,253,0.0,0.0,100,0.00,,,0.00,TxWx,2017-03-30 05:48:00,
2017-03-30 01:53:00,61.3,61.3,30.01,WSW,250,0.0,0.0,100,0.00,,,0.00,TxWx,2017-03-30 05:53:00,
2017-03-30 01:58:00,61.3,61.3,30.01,WSW,255,0.9,1.0,100,0.00,,,0.00,TxWx,2017-03-30 05:58:00,
2017-03-30 02:03:00,61.4,61.4,30.01,East,93,1.5,1.5,100,0.00,,,0.00,TxWx,2017-03-30 06:03:00,
2017-03-30 02:08:00,61.3,61.3,30.01,East,93,0.0,0.0,100,0.00,,,0.00,TxWx,2017-03-30 06:08:00,
2017-03-30 02:13:00,60.9,60.9,30.01,ENE,59,0.0,0.0,100,0.00,,,0.00,TxWx,2017-03-30 06:13:00,
2017-03-30 02:18:00,60.9,60.9,30.01,ENE,70,2.6,2.6,100,0.00,,,0.00,TxWx,2017-03-30 06:18:00,
2017-03-30 02:23:00,60.9,60.9,30.00,ENE,69,3.2,3.2,100,0.00,,,0.00,TxWx,2017-03-30 06:23:00,
2017-03-30 02:28:00,61.1,61.1,30.00,ENE,65,2.4,2.4,100,0.00,,,0.00,TxWx,2017-03-30 06:28:00,
2017-03-30 02:33:00,60.8,60.8,30.00,ENE,68,1.2,1.2,100,0.00,,,0.00,TxWx,2017-03-30 06:33:00,
2017-03-30 02:38:00,60.8,60.8,30.00,ENE,60,3.2,3.2,100,0.00,,,0.00,TxWx,2017-03-30 06:38:00,
2017-03-30 02:43:00,60.8,60.8,30.00,ENE,60,2.7,2.7,100,0.00,,,0.00,TxWx,2017-03-30 06:43:00,
2017-03-30 02:48:00,60.8,60.8,30.00,NE,55,1.5,1.5,100,0.00,,,0.00,TxWx,2017-03-30 06:48:00,
2017-03-30 02:53:00,60.9,60.9,30.00,SSE,166,0.0,0.0,100,0.00,,,0.00,TxWx,2017-03-30 06:53:00,
2017-03-30 02:58:00,61.3,61.3,30.00,SW,232,1.7,1.7,100,0.00,,,0.00,TxWx,2017-03-30 06:58:00,
2017-03-30 03:03:00,61.2,61.2,30.00,NE,38,0.0,0.0,100,0.00,,,0.00,TxWx,2017-03-30 07:03:00,
2017-03-30 03:08:00,61.3,61.3,30.00,SE,129,0.0,0.0,100,0.00,,,0.00,TxWx,2017-03-30 07:08:00,
2017-03-30 03:13:00,61.2,61.2,30.00,South,185,1.1,1.1,100,0.00,,,0.00,TxWx,2017-03-30 07:13:00,
2017-03-30 03:18:00,61.1,61.1,29.99,NE,37,0.2,0.0,100,0.00,,,0.00,TxWx,2017-03-30 07:18:00,
2017-03-30 03:23:00,61.6,61.6,29.99,ENE,70,4.2,4.2,100,0.00,,,0.00,TxWx,2017-03-30 07:23:00,
2017-03-30 03:28:00,61.3,61.3,29.99,SSW,198,0.0,0.0,100,0.00,,,0.00,TxWx,2017-03-30 07:28:00,
2017-03-30 03:33:00,61.3,61.3,29.99,SSW,212,1.2,1.2,100,0.00,,,0.00,TxWx,2017-03-30 07:33:00,